createdAt,value
2019-01-12T00:01:17.890Z,48.90
2019-01-12T00:03:47.062Z,49.00
2019-01-12T00:06:15.138Z,49.00
2019-01-12T00:08:43.105Z,49.00
2019-01-12T00:11:11.077Z,49.80
2019-01-12T00:13:39.147Z,49.20
2019-01-12T00:16:07.423Z,49.40
2019-01-12T00:18:35.391Z,49.30
2019-01-12T00:21:03.359Z,49.50
2019-01-12T00:23:31.333Z,49.40
2019-01-12T00:25:59.303Z,49.30
2019-01-12T00:28:27.268Z,49.90
2019-01-12T00:30:55.237Z,50.10
2019-01-12T00:33:24.153Z,50.00
2019-01-12T00:35:52.377Z,50.60
2019-01-12T00:38:20.582Z,50.30
2019-01-12T00:40:48.652Z,50.00
2019-01-12T00:43:16.596Z,49.70
2019-01-12T00:45:46.600Z,49.60
2019-01-12T00:48:14.485Z,49.70
2019-01-12T00:50:43.486Z,49.90
2019-01-12T00:53:11.467Z,50.20
2019-01-12T00:55:39.438Z,50.00
2019-01-12T00:58:07.306Z,49.80
2019-01-12T01:00:35.276Z,50.20
2019-01-12T01:03:03.351Z,49.70
2019-01-12T01:05:31.286Z,49.90
2019-01-12T01:07:59.390Z,50.50
2019-01-12T01:10:27.359Z,50.10
2019-01-12T01:12:55.299Z,50.60
2019-01-12T01:15:23.294Z,50.40
2019-01-12T01:17:51.267Z,50.40
2019-01-12T01:20:19.236Z,50.50
2019-01-12T01:22:47.192Z,50.50
2019-01-12T01:25:15.173Z,51.30
2019-01-12T01:27:43.244Z,50.70
2019-01-12T01:30:11.194Z,51.00
2019-01-12T01:32:40.856Z,51.20
2019-01-12T01:35:08.791Z,51.30
2019-01-12T01:37:36.728Z,51.90
2019-01-12T01:40:04.731Z,51.10
2019-01-12T01:42:32.801Z,50.70
2019-01-12T01:45:00.771Z,51.20
2019-01-12T01:47:28.850Z,51.70
2019-01-12T01:49:56.720Z,51.10
2019-01-12T01:52:24.680Z,51.00
2019-01-12T01:54:53.107Z,51.10
2019-01-12T01:57:23.260Z,51.30
2019-01-12T01:59:50.881Z,51.20
2019-01-12T02:02:18.985Z,51.20
2019-01-12T02:04:47.086Z,51.20
2019-01-12T02:07:15.437Z,51.30
2019-01-12T02:09:43.414Z,51.40
2019-01-12T02:12:12.455Z,51.50
2019-01-12T02:14:40.711Z,51.60
2019-01-12T02:17:08.860Z,51.60
2019-01-12T02:19:36.850Z,51.60
2019-01-12T02:22:06.747Z,51.80
2019-01-12T02:24:35.383Z,51.80
2019-01-12T02:27:03.393Z,51.70
2019-01-12T02:29:31.492Z,51.70
2019-01-12T02:31:59.535Z,51.70
2019-01-12T02:34:27.532Z,52.30
2019-01-12T02:36:55.473Z,51.30
2019-01-12T02:39:25.055Z,52.30
2019-01-12T02:41:53.364Z,51.70
2019-01-12T02:44:21.459Z,51.70
2019-01-12T02:46:51.359Z,51.80
2019-01-12T02:49:19.037Z,51.90
2019-01-12T02:51:47.010Z,51.90
2019-01-12T02:54:14.974Z,52.10
2019-01-12T02:56:42.922Z,52.10
2019-01-12T02:59:10.912Z,51.70
2019-01-12T03:01:39.274Z,51.60
2019-01-12T03:04:07.334Z,51.50
2019-01-12T03:06:35.336Z,51.30
2019-01-12T03:09:06.444Z,51.60
2019-01-12T03:11:34.447Z,51.30
2019-01-12T03:14:02.416Z,51.30
2019-01-12T03:16:32.243Z,51.90
2019-01-12T03:18:59.994Z,51.60
2019-01-12T03:21:27.962Z,51.60
2019-01-12T03:23:56.034Z,51.70
2019-01-12T03:26:26.979Z,51.70
2019-01-12T03:28:54.742Z,51.70
2019-01-12T03:31:22.812Z,51.60
2019-01-12T03:33:52.753Z,51.60
2019-01-12T03:36:20.463Z,51.60
2019-01-12T03:38:48.461Z,51.50
2019-01-12T03:41:16.639Z,51.80
2019-01-12T03:43:44.808Z,51.60
2019-01-12T03:46:12.778Z,51.30
2019-01-12T03:48:40.748Z,51.20
2019-01-12T03:51:08.927Z,51.10
2019-01-12T03:53:36.892Z,51.30
2019-01-12T03:56:05.889Z,51.40
2019-01-12T03:58:33.858Z,52.10
2019-01-12T04:01:01.899Z,51.50
2019-01-12T04:03:29.894Z,51.50
2019-01-12T04:05:57.969Z,51.30
2019-01-12T04:08:25.914Z,51.50
2019-01-12T04:10:54.008Z,51.70
2019-01-12T04:13:23.680Z,51.50
2019-01-12T04:15:51.788Z,51.50
2019-01-12T04:18:20.169Z,51.40
2019-01-12T04:20:48.122Z,51.00
2019-01-12T04:23:16.208Z,52.00
2019-01-12T04:25:45.888Z,51.60
2019-01-12T04:28:13.900Z,51.70
2019-01-12T04:30:41.859Z,51.30
2019-01-12T04:33:09.933Z,51.30
2019-01-12T04:35:37.901Z,51.30
2019-01-12T04:38:05.871Z,51.30
2019-01-12T04:40:33.840Z,51.50
2019-01-12T04:43:01.911Z,51.20
2019-01-12T04:45:30.187Z,50.90
2019-01-12T04:47:59.180Z,50.80
2019-01-12T04:50:27.255Z,50.90
2019-01-12T04:52:55.427Z,50.90
2019-01-12T04:55:23.477Z,51.30
2019-01-12T04:57:51.439Z,51.10
2019-01-12T05:00:19.480Z,51.00
2019-01-12T05:02:47.484Z,52.00
2019-01-12T05:05:15.455Z,51.40
2019-01-12T05:07:43.419Z,51.50
2019-01-12T05:10:12.135Z,51.90
2019-01-12T05:12:40.081Z,52.00
2019-01-12T05:15:07.985Z,52.20
2019-01-12T05:17:36.043Z,51.80
2019-01-12T05:20:04.013Z,51.60
2019-01-12T05:22:31.987Z,51.60
2019-01-12T05:25:00.232Z,51.40
2019-01-12T05:27:28.337Z,51.00
2019-01-12T05:29:56.381Z,51.70
2019-01-12T05:32:24.370Z,51.90
2019-01-12T05:34:52.652Z,52.10
2019-01-12T05:37:20.930Z,52.10
2019-01-12T05:39:48.894Z,52.10
2019-01-12T05:42:17.814Z,51.80
2019-01-12T05:44:45.732Z,52.20
2019-01-12T05:47:14.780Z,51.80
2019-01-12T05:49:42.924Z,51.60
2019-01-12T05:52:10.860Z,51.70
2019-01-12T05:54:39.034Z,51.80
2019-01-12T05:57:07.009Z,51.80
2019-01-12T05:59:35.111Z,51.80
2019-01-12T06:02:03.154Z,51.90
2019-01-12T06:04:31.120Z,52.20
2019-01-12T06:06:59.119Z,52.70
2019-01-12T06:09:27.193Z,53.10
2019-01-12T06:11:55.368Z,52.50
2019-01-12T06:14:23.435Z,52.40
2019-01-12T06:16:51.373Z,52.40
2019-01-12T06:19:19.351Z,53.20
2019-01-12T06:21:47.417Z,53.50
2019-01-12T06:24:15.517Z,52.90
2019-01-12T06:26:45.034Z,52.70
2019-01-12T06:29:13.081Z,52.70
2019-01-12T06:31:41.065Z,52.70
2019-01-12T06:34:09.141Z,52.90
2019-01-12T06:36:37.109Z,52.80
2019-01-12T06:39:05.588Z,52.90
2019-01-12T06:41:33.561Z,52.80
2019-01-12T06:44:01.602Z,53.40
2019-01-12T06:46:30.391Z,53.40
2019-01-12T06:48:58.389Z,52.60
2019-01-12T06:51:27.663Z,53.10
2019-01-12T06:53:57.004Z,53.10
2019-01-12T06:56:25.042Z,52.90
2019-01-12T06:58:53.029Z,53.20
2019-01-12T07:01:21.307Z,53.10
2019-01-12T07:03:49.278Z,53.10
2019-01-12T07:06:17.248Z,53.70
2019-01-12T07:08:45.150Z,53.30
2019-01-12T07:11:13.184Z,53.20
2019-01-12T07:13:41.153Z,53.50
2019-01-12T07:16:09.123Z,53.30
2019-01-12T07:18:37.067Z,53.10
2019-01-12T07:21:06.225Z,53.60
2019-01-12T07:23:34.260Z,53.00
2019-01-12T07:26:02.232Z,52.90
2019-01-12T07:28:30.199Z,52.90
2019-01-12T07:30:58.371Z,53.30
2019-01-12T07:33:26.343Z,53.00
2019-01-12T07:35:54.320Z,52.60
2019-01-12T07:38:22.354Z,52.50
2019-01-12T07:40:50.356Z,52.40
2019-01-12T07:43:18.295Z,50.60
2019-01-12T07:45:46.607Z,49.90
2019-01-12T07:48:14.749Z,48.90
2019-01-12T07:50:42.746Z,47.90
2019-01-12T07:53:10.917Z,46.60
2019-01-12T07:55:38.887Z,45.10
2019-01-12T07:58:06.959Z,44.90
2019-01-12T08:00:35.129Z,43.80
2019-01-12T08:03:04.856Z,42.70
2019-01-12T08:05:32.918Z,41.80
2019-01-12T08:08:00.883Z,41.20
2019-01-12T08:10:28.964Z,41.10
2019-01-12T08:12:56.927Z,40.00
2019-01-12T08:15:24.828Z,39.20
2019-01-12T08:17:52.838Z,39.10
2019-01-12T08:20:20.834Z,38.50
2019-01-12T08:22:48.783Z,38.50
2019-01-12T08:25:16.745Z,38.00
2019-01-12T08:27:45.710Z,37.30
2019-01-12T08:30:13.735Z,37.00
2019-01-12T08:32:41.910Z,38.70
2019-01-12T08:35:16.592Z,39.90
2019-01-12T08:37:44.510Z,40.30
2019-01-12T08:40:12.475Z,40.50
2019-01-12T08:42:40.545Z,40.60
2019-01-12T08:45:08.491Z,39.80
2019-01-12T08:47:36.694Z,39.40
2019-01-12T08:50:04.863Z,38.70
2019-01-12T08:52:33.012Z,38.50
2019-01-12T08:55:01.115Z,37.70
2019-01-12T08:57:29.184Z,36.30
2019-01-12T08:59:57.352Z,36.30
2019-01-12T09:02:25.404Z,35.50
2019-01-12T09:04:53.581Z,34.80
2019-01-12T09:07:21.674Z,35.30
2019-01-12T09:09:49.644Z,36.30
2019-01-12T09:12:18.537Z,36.10
2019-01-12T09:14:47.751Z,37.50
2019-01-12T09:17:16.097Z,37.40
2019-01-12T09:19:44.528Z,36.80
2019-01-12T09:22:14.359Z,36.80
2019-01-12T09:24:42.946Z,37.10
2019-01-12T09:27:11.632Z,36.30
2019-01-12T09:29:39.645Z,36.40
2019-01-12T09:32:07.614Z,35.90
2019-01-12T09:34:35.588Z,36.60
2019-01-12T09:37:04.251Z,37.20
2019-01-12T09:39:32.341Z,35.90
2019-01-12T09:42:00.310Z,36.40
2019-01-12T09:44:28.255Z,35.60
2019-01-12T09:46:56.249Z,35.60
2019-01-12T09:49:26.282Z,35.50
2019-01-12T09:51:54.342Z,35.60
2019-01-12T09:54:22.321Z,35.20
2019-01-12T09:56:51.870Z,35.80
2019-01-12T09:59:19.987Z,36.80
2019-01-12T10:01:49.682Z,35.10
2019-01-12T10:04:17.668Z,34.40
2019-01-12T10:06:45.637Z,32.40
2019-01-12T10:09:13.787Z,31.30
2019-01-12T10:11:41.780Z,30.90
2019-01-12T10:14:10.757Z,30.00
2019-01-12T10:16:38.743Z,30.20
2019-01-12T10:19:06.794Z,29.30
2019-01-12T10:21:34.785Z,29.20
2019-01-12T10:24:04.475Z,28.10
2019-01-12T10:26:32.361Z,26.50
2019-01-12T10:29:01.391Z,26.30
2019-01-12T10:31:29.503Z,25.20
2019-01-12T10:33:59.248Z,24.60
2019-01-12T10:36:27.310Z,24.30
2019-01-12T10:38:55.285Z,23.90
2019-01-12T10:41:23.223Z,24.60
2019-01-12T10:43:51.217Z,24.90
2019-01-12T10:46:19.189Z,23.80
2019-01-12T10:48:47.260Z,23.30
2019-01-12T10:51:16.215Z,23.10
2019-01-12T10:53:44.428Z,22.90
2019-01-12T10:56:12.398Z,23.20
2019-01-12T10:58:40.342Z,23.40
2019-01-12T11:01:08.309Z,23.90
2019-01-12T11:03:36.408Z,23.00
2019-01-12T11:06:04.454Z,22.70
2019-01-12T11:08:33.326Z,23.70
2019-01-12T11:11:01.215Z,23.90
2019-01-12T11:13:29.210Z,22.90
2019-01-12T11:15:57.151Z,23.50
2019-01-12T11:18:25.227Z,23.20
2019-01-12T11:20:53.218Z,23.10
2019-01-12T11:23:21.497Z,24.70
2019-01-12T11:25:49.467Z,24.40
2019-01-12T11:28:18.637Z,25.20
2019-01-12T11:30:46.632Z,26.00
2019-01-12T11:33:14.706Z,26.60
2019-01-12T11:35:42.754Z,27.40
2019-01-12T11:38:10.725Z,28.20
2019-01-12T11:40:40.644Z,29.90
2019-01-12T11:43:08.293Z,30.90
2019-01-12T11:45:36.292Z,31.70
2019-01-12T11:48:04.262Z,32.90
2019-01-12T11:50:32.232Z,34.70
2019-01-12T11:53:01.164Z,36.00
2019-01-12T11:55:30.922Z,35.90
2019-01-12T11:57:58.817Z,36.80
2019-01-12T12:00:26.770Z,37.00
2019-01-12T12:02:54.744Z,36.80
2019-01-12T12:05:22.681Z,37.50
2019-01-12T12:07:50.985Z,37.90
2019-01-12T12:10:18.955Z,38.80
2019-01-12T12:12:47.233Z,40.30
2019-01-12T12:15:15.407Z,38.50
2019-01-12T12:17:43.377Z,39.10
2019-01-12T12:20:11.347Z,37.90
2019-01-12T12:22:39.522Z,41.70
2019-01-12T12:25:07.489Z,44.20
2019-01-12T12:27:35.458Z,44.30
2019-01-12T12:30:03.429Z,44.40
2019-01-12T12:32:31.400Z,43.70
2019-01-12T12:34:59.337Z,43.70
2019-01-12T12:37:27.338Z,43.30
2019-01-12T12:39:55.279Z,43.50
2019-01-12T12:42:23.278Z,43.00
2019-01-12T12:44:52.217Z,42.70
2019-01-12T12:47:21.205Z,42.90
2019-01-12T12:49:49.748Z,43.50
2019-01-12T12:52:17.994Z,44.10
2019-01-12T12:54:45.994Z,45.50
2019-01-12T12:57:16.068Z,47.30
2019-01-12T12:59:45.182Z,47.70
2019-01-12T13:02:14.452Z,47.30
2019-01-12T13:04:42.477Z,46.30
2019-01-12T13:07:11.895Z,44.50
2019-01-12T13:09:40.030Z,42.80
2019-01-12T13:12:10.604Z,41.70
2019-01-12T13:14:38.967Z,40.50
2019-01-12T13:17:06.934Z,38.90
2019-01-12T13:19:37.686Z,40.00
2019-01-12T13:22:06.352Z,40.00
2019-01-12T13:24:34.415Z,39.80
2019-01-12T13:27:02.494Z,41.50
2019-01-12T13:29:30.668Z,43.80
2019-01-12T13:31:59.620Z,46.70
2019-01-12T13:34:27.945Z,49.10
2019-01-12T13:36:56.213Z,49.80
2019-01-12T13:39:24.187Z,50.50
2019-01-12T13:41:52.259Z,52.10
2019-01-12T13:44:20.432Z,51.90
2019-01-12T13:46:48.374Z,52.10
2019-01-12T13:49:16.367Z,52.70
2019-01-12T13:51:45.411Z,53.10
2019-01-12T13:54:13.934Z,54.10
2019-01-12T13:56:43.556Z,55.20
2019-01-12T13:59:11.521Z,55.50
2019-01-12T14:01:40.124Z,56.00
2019-01-12T14:04:08.249Z,56.50
2019-01-12T14:06:36.253Z,57.70
2019-01-12T14:09:06.022Z,57.50
2019-01-12T14:11:34.144Z,57.90
2019-01-12T14:14:02.310Z,58.00
2019-01-12T14:16:30.391Z,57.40
2019-01-12T14:18:58.560Z,58.10
2019-01-12T14:21:27.009Z,58.20
2019-01-12T14:23:55.113Z,59.20
2019-01-12T14:26:23.199Z,58.00
2019-01-12T14:28:51.258Z,58.70
2019-01-12T14:31:19.219Z,57.60
2019-01-12T14:33:48.304Z,55.90
2019-01-12T14:36:16.591Z,54.90
2019-01-12T14:38:46.050Z,55.20
2019-01-12T14:41:14.072Z,52.50
2019-01-12T14:43:43.884Z,54.10
2019-01-12T14:46:12.061Z,53.40
2019-01-12T14:48:40.204Z,52.50
2019-01-12T14:51:08.328Z,51.80
2019-01-12T14:53:38.277Z,51.20
2019-01-12T14:56:05.982Z,51.40
2019-01-12T14:58:34.577Z,50.60
2019-01-12T15:01:03.156Z,50.90
2019-01-12T15:03:31.618Z,51.20
2019-01-12T15:05:59.614Z,52.00
2019-01-12T15:08:27.642Z,51.70
2019-01-12T15:10:55.843Z,52.50
2019-01-12T15:13:23.798Z,51.50
2019-01-12T15:15:51.987Z,51.50
2019-01-12T15:18:20.470Z,52.20
2019-01-12T15:20:49.937Z,52.60
2019-01-12T15:23:18.699Z,53.40
2019-01-12T15:25:47.500Z,53.70
2019-01-12T15:28:16.200Z,53.80
2019-01-12T15:30:45.025Z,54.20
2019-01-12T15:33:13.922Z,54.80
2019-01-12T15:35:42.911Z,55.30
2019-01-12T15:38:10.880Z,55.50
2019-01-12T15:40:39.054Z,55.50
2019-01-12T15:43:07.231Z,55.80
2019-01-12T15:45:35.297Z,56.00
2019-01-12T15:48:03.370Z,55.80
2019-01-12T15:50:32.299Z,56.80
2019-01-12T15:53:01.505Z,57.00
2019-01-12T15:55:29.739Z,57.10
2019-01-12T15:57:59.746Z,57.80
2019-01-12T16:00:27.418Z,59.70
2019-01-12T16:02:56.879Z,60.70
2019-01-12T16:05:24.893Z,61.30
2019-01-12T16:07:52.944Z,61.20
2019-01-12T16:10:21.549Z,62.40
2019-01-12T16:12:50.316Z,62.10
2019-01-12T16:15:21.346Z,63.10
2019-01-12T16:17:49.700Z,63.00
2019-01-12T16:20:17.902Z,63.20
2019-01-12T16:22:45.874Z,63.10
2019-01-12T16:25:14.792Z,64.60
2019-01-12T16:27:43.781Z,64.50
2019-01-12T16:30:12.858Z,64.30
2019-01-12T16:32:43.082Z,65.70
2019-01-12T16:35:12.732Z,65.00
2019-01-12T16:37:42.195Z,64.60
2019-01-12T16:40:12.852Z,65.20
2019-01-12T16:42:43.551Z,65.40
2019-01-12T16:45:14.977Z,64.70
2019-01-12T16:48:01.842Z,64.20
2019-01-12T16:50:20.959Z,63.20
2019-01-12T16:52:54.262Z,61.50
2019-01-12T16:55:25.272Z,60.90
2019-01-12T16:57:56.529Z,60.00
2019-01-12T17:00:29.080Z,58.50
2019-01-12T17:03:00.228Z,57.60
2019-01-12T17:05:30.540Z,57.20
2019-01-12T17:08:02.098Z,56.80
2019-01-12T17:10:34.204Z,56.50
2019-01-12T17:13:06.020Z,56.10
2019-01-12T17:15:37.498Z,55.70
2019-01-12T17:18:06.032Z,55.20
2019-01-12T17:20:34.729Z,54.90
2019-01-12T17:23:02.687Z,54.50
2019-01-12T17:25:30.875Z,54.40
2019-01-12T17:28:00.351Z,54.70
2019-01-12T17:30:28.681Z,54.80
2019-01-12T17:32:57.034Z,54.60
2019-01-12T17:35:25.381Z,54.40
2019-01-12T17:37:53.770Z,54.50
2019-01-12T17:40:21.865Z,54.40
2019-01-12T17:42:51.137Z,54.30
2019-01-12T17:45:20.026Z,54.30
2019-01-12T17:47:48.025Z,54.30
2019-01-12T17:50:16.076Z,54.40
2019-01-12T17:52:44.167Z,54.30
2019-01-12T17:55:12.361Z,54.20
2019-01-12T18:24:44.287Z,55.00
2019-01-12T18:27:12.333Z,54.90
2019-01-12T18:29:41.512Z,55.00
2019-01-12T18:32:09.507Z,55.00
2019-01-12T18:34:37.597Z,54.90
2019-01-12T18:37:05.976Z,55.00
2019-01-12T18:39:34.054Z,54.90
2019-01-12T18:42:02.022Z,55.00
2019-01-12T18:44:30.400Z,54.90
2019-01-12T18:46:58.545Z,54.80
2019-01-12T18:49:26.749Z,54.70
2019-01-12T18:51:54.818Z,54.80
2019-01-12T18:54:22.891Z,54.90
2019-01-12T18:56:51.064Z,55.00
2019-01-12T18:59:22.286Z,55.10
2019-01-12T19:01:50.279Z,55.10
2019-01-12T19:04:18.250Z,55.30
2019-01-12T19:06:46.212Z,55.70
2019-01-12T19:09:15.277Z,55.80
2019-01-12T19:11:43.387Z,56.00
2019-01-12T19:14:11.458Z,56.30
2019-01-12T19:16:39.536Z,56.00
2019-01-12T19:19:07.500Z,56.00
2019-01-12T19:21:35.551Z,56.10
2019-01-12T19:24:03.744Z,56.20
2019-01-12T19:26:31.817Z,56.10
2019-01-12T19:29:06.176Z,55.90
2019-01-12T19:31:29.601Z,56.10
2019-01-12T19:33:57.569Z,56.30
2019-01-12T19:36:26.664Z,56.60
2019-01-12T19:38:54.837Z,56.60
2019-01-12T19:41:23.010Z,56.70
2019-01-12T19:43:51.056Z,57.10
2019-01-12T19:46:19.365Z,57.40
2019-01-12T19:48:49.263Z,57.40
2019-01-12T19:51:17.038Z,57.40
2019-01-12T19:53:46.305Z,57.40
2019-01-12T19:56:14.415Z,57.70
2019-01-12T19:58:42.381Z,57.60
2019-01-12T20:01:10.537Z,58.70
2019-01-12T20:03:41.195Z,58.90
2019-01-12T20:06:09.366Z,59.40
2019-01-12T20:08:37.542Z,59.70
2019-01-12T20:11:05.684Z,60.00
2019-01-12T20:13:34.807Z,60.50
2019-01-12T20:16:03.267Z,60.70
2019-01-12T20:18:33.795Z,60.90
2019-01-12T20:21:01.890Z,61.10
2019-01-12T20:23:30.272Z,61.30
2019-01-12T20:25:58.450Z,61.80
2019-01-12T20:28:26.416Z,61.90
2019-01-12T20:30:54.370Z,62.20
2019-01-12T20:33:22.657Z,62.20
2019-01-12T20:35:51.030Z,62.40
2019-01-12T20:38:19.114Z,62.60
2019-01-12T20:40:47.289Z,63.90
2019-01-12T20:43:18.303Z,63.70
2019-01-12T20:45:46.400Z,64.20
2019-01-12T20:48:14.468Z,65.10
2019-01-12T20:50:42.539Z,64.10
2019-01-12T20:53:11.122Z,64.70
2019-01-12T20:55:41.847Z,64.70
2019-01-12T20:58:10.290Z,65.10
2019-01-12T21:00:39.478Z,65.60
2019-01-12T21:03:08.101Z,66.00
2019-01-12T21:05:36.089Z,66.20
2019-01-12T21:08:04.164Z,66.30
2019-01-12T21:10:32.850Z,67.50
2019-01-12T21:13:01.377Z,67.10
2019-01-12T21:15:30.101Z,67.20
2019-01-12T21:17:58.599Z,67.30
2019-01-12T21:20:26.677Z,67.70
2019-01-12T21:22:58.615Z,68.60
2019-01-12T21:25:27.299Z,69.50
2019-01-12T21:27:55.804Z,70.30
2019-01-12T21:30:24.601Z,71.30
2019-01-12T21:32:53.497Z,71.10
2019-01-12T21:35:21.453Z,70.50
2019-01-12T21:37:50.309Z,70.40
2019-01-12T21:40:18.425Z,69.70
2019-01-12T21:42:47.686Z,69.40
2019-01-12T21:45:16.595Z,68.90
2019-01-12T21:47:46.401Z,68.80
2019-01-12T21:50:14.965Z,68.70
2019-01-12T21:52:43.176Z,68.70
2019-01-12T21:55:11.872Z,68.60
2019-01-12T21:57:40.006Z,69.30
2019-01-12T22:00:08.700Z,68.60
2019-01-12T22:02:37.432Z,68.50
2019-01-12T22:05:06.195Z,68.40
2019-01-12T22:07:34.172Z,68.30
2019-01-12T22:10:02.761Z,68.10
2019-01-12T22:12:30.830Z,68.30
2019-01-12T22:14:59.509Z,68.30
2019-01-12T22:17:29.834Z,68.40
2019-01-12T22:19:58.489Z,68.40
2019-01-12T22:22:27.306Z,68.50
2019-01-12T22:24:58.908Z,68.20
2019-01-12T22:27:28.623Z,68.20
2019-01-12T22:29:57.325Z,68.50
2019-01-12T22:32:25.570Z,68.70
2019-01-12T22:34:53.622Z,68.90
2019-01-12T22:37:21.677Z,69.00
2019-01-12T22:39:49.956Z,68.90
2019-01-12T22:42:18.307Z,68.30
2019-01-12T22:44:46.827Z,68.00
2019-01-12T22:47:15.398Z,67.90
2019-01-12T22:49:44.880Z,68.60
2019-01-12T22:52:13.261Z,67.50
2019-01-12T22:54:41.459Z,67.00
2019-01-12T22:57:42.402Z,66.90
2019-01-12T23:03:08.236Z,66.40
2019-01-12T23:05:36.207Z,66.00
2019-01-12T23:08:04.150Z,66.00
2019-01-12T23:10:32.350Z,66.00
2019-01-12T23:13:00.528Z,66.00
2019-01-12T23:15:28.501Z,65.80
2019-01-12T23:17:56.444Z,65.80
2019-01-12T23:20:26.740Z,65.40
2019-01-12T23:22:56.940Z,65.10
2019-01-12T23:25:26.693Z,65.20
2019-01-12T23:27:56.982Z,64.80
2019-01-12T23:30:25.020Z,64.70
2019-01-12T23:32:52.966Z,64.90
2019-01-12T23:35:20.961Z,65.20
2019-01-12T23:37:48.999Z,65.20
2019-01-12T23:40:17.098Z,65.00
2019-01-12T23:42:45.364Z,64.50
2019-01-12T23:45:13.379Z,64.30
2019-01-12T23:47:41.415Z,64.80
2019-01-12T23:50:09.875Z,64.90
2019-01-12T23:52:38.074Z,64.50
2019-01-12T23:55:06.115Z,64.70
2019-01-12T23:57:34.113Z,65.00
